sensor_id;sensor_type;location;lat;lon;timestamp;P1;durP1;ratioP1;P2;durP2;ratioP2
36547;SDS011;22551;52.206;4.856;2023-11-18T00:04:38;25.77;;;11.95;;
36547;SDS011;22551;52.206;4.856;2023-11-18T00:09:40;28.35;;;12.90;;
36547;SDS011;22551;52.206;4.856;2023-11-18T00:14:45;27.00;;;12.88;;
36547;SDS011;22551;52.206;4.856;2023-11-18T00:19:49;32.42;;;12.88;;
36547;SDS011;22551;52.206;4.856;2023-11-18T00:24:51;27.00;;;11.93;;
36547;SDS011;22551;52.206;4.856;2023-11-18T00:29:53;24.48;;;11.52;;
36547;SDS011;22551;52.206;4.856;2023-11-18T00:34:57;28.02;;;12.30;;
36547;SDS011;22551;52.206;4.856;2023-11-18T00:39:59;27.23;;;12.82;;
36547;SDS011;22551;52.206;4.856;2023-11-18T00:45:01;26.75;;;11.57;;
36547;SDS011;22551;52.206;4.856;2023-11-18T00:50:06;28.58;;;12.05;;
36547;SDS011;22551;52.206;4.856;2023-11-18T00:55:09;20.77;;;10.98;;
36547;SDS011;22551;52.206;4.856;2023-11-18T01:00:11;27.05;;;11.55;;
36547;SDS011;22551;52.206;4.856;2023-11-18T01:05:17;26.52;;;12.05;;
36547;SDS011;22551;52.206;4.856;2023-11-18T01:10:19;26.58;;;12.50;;
36547;SDS011;22551;52.206;4.856;2023-11-18T01:15:22;18.75;;;10.80;;
36547;SDS011;22551;52.206;4.856;2023-11-18T01:20:25;21.75;;;11.43;;
36547;SDS011;22551;52.206;4.856;2023-11-18T01:25:27;25.85;;;13.45;;
36547;SDS011;22551;52.206;4.856;2023-11-18T01:30:30;24.92;;;12.23;;
36547;SDS011;22551;52.206;4.856;2023-11-18T01:35:34;24.15;;;13.10;;
36547;SDS011;22551;52.206;4.856;2023-11-18T01:40:36;24.92;;;12.38;;
36547;SDS011;22551;52.206;4.856;2023-11-18T01:45:39;28.90;;;13.20;;
36547;SDS011;22551;52.206;4.856;2023-11-18T01:50:43;26.80;;;11.93;;
36547;SDS011;22551;52.206;4.856;2023-11-18T02:00:49;27.98;;;11.75;;
36547;SDS011;22551;52.206;4.856;2023-11-18T02:05:54;29.02;;;12.00;;
36547;SDS011;22551;52.206;4.856;2023-11-18T02:10:58;27.30;;;13.15;;
36547;SDS011;22551;52.206;4.856;2023-11-18T02:16:12;27.17;;;12.40;;
36547;SDS011;22551;52.206;4.856;2023-11-18T02:21:17;30.67;;;13.05;;
36547;SDS011;22551;52.206;4.856;2023-11-18T02:26:23;26.65;;;13.00;;
36547;SDS011;22551;52.206;4.856;2023-11-18T02:31:27;23.52;;;11.80;;
36547;SDS011;22551;52.206;4.856;2023-11-18T02:36:39;25.05;;;12.07;;
36547;SDS011;22551;52.206;4.856;2023-11-18T02:41:48;25.05;;;11.93;;
36547;SDS011;22551;52.206;4.856;2023-11-18T02:46:53;29.70;;;12.13;;
36547;SDS011;22551;52.206;4.856;2023-11-18T02:51:56;25.90;;;11.27;;
36547;SDS011;22551;52.206;4.856;2023-11-18T02:56:59;28.30;;;12.10;;
36547;SDS011;22551;52.206;4.856;2023-11-18T03:02:01;27.08;;;11.63;;
36547;SDS011;22551;52.206;4.856;2023-11-18T03:07:05;20.60;;;11.20;;
36547;SDS011;22551;52.206;4.856;2023-11-18T03:12:09;21.67;;;10.93;;
36547;SDS011;22551;52.206;4.856;2023-11-18T03:17:12;21.42;;;10.25;;
36547;SDS011;22551;52.206;4.856;2023-11-18T03:22:14;28.98;;;12.10;;
36547;SDS011;22551;52.206;4.856;2023-11-18T03:27:17;21.40;;;10.48;;
36547;SDS011;22551;52.206;4.856;2023-11-18T03:32:19;20.60;;;10.52;;
36547;SDS011;22551;52.206;4.856;2023-11-18T03:37:22;24.33;;;10.75;;
36547;SDS011;22551;52.206;4.856;2023-11-18T03:42:25;25.80;;;11.90;;
36547;SDS011;22551;52.206;4.856;2023-11-18T03:47:29;22.50;;;11.50;;
36547;SDS011;22551;52.206;4.856;2023-11-18T03:52:31;23.08;;;10.07;;
36547;SDS011;22551;52.206;4.856;2023-11-18T03:57:39;25.02;;;10.85;;
36547;SDS011;22551;52.206;4.856;2023-11-18T04:02:41;25.45;;;12.10;;
36547;SDS011;22551;52.206;4.856;2023-11-18T04:07:45;23.80;;;11.57;;
36547;SDS011;22551;52.206;4.856;2023-11-18T04:12:49;28.83;;;12.95;;
36547;SDS011;22551;52.206;4.856;2023-11-18T04:17:51;27.65;;;12.27;;
36547;SDS011;22551;52.206;4.856;2023-11-18T04:22:53;30.20;;;14.73;;
36547;SDS011;22551;52.206;4.856;2023-11-18T04:27:57;25.17;;;13.38;;
36547;SDS011;22551;52.206;4.856;2023-11-18T04:32:59;22.67;;;12.43;;
36547;SDS011;22551;52.206;4.856;2023-11-18T04:38:01;24.60;;;12.82;;
36547;SDS011;22551;52.206;4.856;2023-11-18T04:43:05;33.63;;;13.45;;
36547;SDS011;22551;52.206;4.856;2023-11-18T04:48:08;33.97;;;14.07;;
36547;SDS011;22551;52.206;4.856;2023-11-18T04:53:10;26.40;;;12.80;;
36547;SDS011;22551;52.206;4.856;2023-11-18T04:58:15;33.17;;;14.20;;
36547;SDS011;22551;52.206;4.856;2023-11-18T05:03:17;31.73;;;13.67;;
36547;SDS011;22551;52.206;4.856;2023-11-18T05:08:20;31.08;;;13.20;;
36547;SDS011;22551;52.206;4.856;2023-11-18T05:13:24;26.58;;;12.90;;
36547;SDS011;22551;52.206;4.856;2023-11-18T05:18:27;38.83;;;12.53;;
36547;SDS011;22551;52.206;4.856;2023-11-18T05:23:33;23.98;;;12.07;;
36547;SDS011;22551;52.206;4.856;2023-11-18T05:28:37;26.52;;;11.88;;
36547;SDS011;22551;52.206;4.856;2023-11-18T05:33:39;30.35;;;13.38;;
36547;SDS011;22551;52.206;4.856;2023-11-18T05:38:42;24.23;;;12.02;;
36547;SDS011;22551;52.206;4.856;2023-11-18T05:43:46;24.23;;;11.18;;
36547;SDS011;22551;52.206;4.856;2023-11-18T05:48:51;25.95;;;12.32;;
36547;SDS011;22551;52.206;4.856;2023-11-18T05:53:54;28.27;;;12.18;;
36547;SDS011;22551;52.206;4.856;2023-11-18T05:58:58;26.05;;;13.07;;
36547;SDS011;22551;52.206;4.856;2023-11-18T06:04:03;22.48;;;11.40;;
36547;SDS011;22551;52.206;4.856;2023-11-18T06:14:22;22.80;;;10.50;;
36547;SDS011;22551;52.206;4.856;2023-11-18T06:19:24;24.55;;;11.52;;
36547;SDS011;22551;52.206;4.856;2023-11-18T06:24:26;30.23;;;12.85;;
36547;SDS011;22551;52.206;4.856;2023-11-18T06:29:30;29.73;;;11.48;;
36547;SDS011;22551;52.206;4.856;2023-11-18T06:34:33;31.80;;;13.00;;
36547;SDS011;22551;52.206;4.856;2023-11-18T06:39:35;29.58;;;11.88;;
36547;SDS011;22551;52.206;4.856;2023-11-18T06:44:45;30.75;;;11.02;;
36547;SDS011;22551;52.206;4.856;2023-11-18T06:49:49;27.35;;;12.57;;
36547;SDS011;22551;52.206;4.856;2023-11-18T06:54:53;33.50;;;12.60;;
36547;SDS011;22551;52.206;4.856;2023-11-18T06:59:56;32.53;;;11.57;;
36547;SDS011;22551;52.206;4.856;2023-11-18T07:04:58;29.48;;;11.52;;
36547;SDS011;22551;52.206;4.856;2023-11-18T07:10:01;33.63;;;10.98;;
36547;SDS011;22551;52.206;4.856;2023-11-18T07:15:05;24.50;;;10.07;;
36547;SDS011;22551;52.206;4.856;2023-11-18T07:20:11;31.15;;;12.02;;
36547;SDS011;22551;52.206;4.856;2023-11-18T07:25:14;31.33;;;11.60;;
36547;SDS011;22551;52.206;4.856;2023-11-18T07:30:20;28.95;;;11.27;;
36547;SDS011;22551;52.206;4.856;2023-11-18T07:35:25;26.27;;;10.68;;
36547;SDS011;22551;52.206;4.856;2023-11-18T07:40:27;27.25;;;10.88;;
36547;SDS011;22551;52.206;4.856;2023-11-18T07:45:35;24.05;;;10.65;;
36547;SDS011;22551;52.206;4.856;2023-11-18T07:50:39;26.63;;;10.57;;
36547;SDS011;22551;52.206;4.856;2023-11-18T08:00:58;25.17;;;9.70;;
36547;SDS011;22551;52.206;4.856;2023-11-18T08:06:01;19.60;;;9.02;;
36547;SDS011;22551;52.206;4.856;2023-11-18T08:16:13;24.75;;;9.93;;
36547;SDS011;22551;52.206;4.856;2023-11-18T08:21:16;20.85;;;9.32;;
36547;SDS011;22551;52.206;4.856;2023-11-18T08:26:18;24.42;;;8.98;;
36547;SDS011;22551;52.206;4.856;2023-11-18T08:31:21;18.20;;;9.75;;
36547;SDS011;22551;52.206;4.856;2023-11-18T08:36:24;23.20;;;9.57;;
36547;SDS011;22551;52.206;4.856;2023-11-18T08:41:27;18.33;;;8.52;;
36547;SDS011;22551;52.206;4.856;2023-11-18T08:46:32;21.10;;;8.00;;
36547;SDS011;22551;52.206;4.856;2023-11-18T08:51:36;22.92;;;8.35;;
36547;SDS011;22551;52.206;4.856;2023-11-18T08:56:42;22.88;;;7.18;;
36547;SDS011;22551;52.206;4.856;2023-11-18T09:01:45;17.63;;;7.72;;
36547;SDS011;22551;52.206;4.856;2023-11-18T09:06:49;16.98;;;6.43;;
36547;SDS011;22551;52.206;4.856;2023-11-18T09:11:54;13.63;;;7.13;;
36547;SDS011;22551;52.206;4.856;2023-11-18T09:16:59;16.13;;;7.00;;
36547;SDS011;22551;52.206;4.856;2023-11-18T09:22:02;18.92;;;6.45;;
36547;SDS011;22551;52.206;4.856;2023-11-18T09:27:05;13.18;;;6.20;;
36547;SDS011;22551;52.206;4.856;2023-11-18T09:32:10;14.63;;;5.78;;
36547;SDS011;22551;52.206;4.856;2023-11-18T09:37:14;11.45;;;6.13;;
36547;SDS011;22551;52.206;4.856;2023-11-18T09:42:20;11.43;;;5.32;;
36547;SDS011;22551;52.206;4.856;2023-11-18T09:47:25;12.45;;;5.50;;
36547;SDS011;22551;52.206;4.856;2023-11-18T09:52:28;16.52;;;5.47;;
36547;SDS011;22551;52.206;4.856;2023-11-18T09:57:32;15.98;;;6.32;;
36547;SDS011;22551;52.206;4.856;2023-11-18T10:02:41;22.20;;;6.00;;
36547;SDS011;22551;52.206;4.856;2023-11-18T10:07:45;11.40;;;5.78;;
36547;SDS011;22551;52.206;4.856;2023-11-18T10:12:49;10.98;;;5.15;;
36547;SDS011;22551;52.206;4.856;2023-11-18T10:17:54;7.27;;;4.43;;
36547;SDS011;22551;52.206;4.856;2023-11-18T10:23:05;13.93;;;4.78;;
36547;SDS011;22551;52.206;4.856;2023-11-18T10:28:13;8.80;;;4.40;;
36547;SDS011;22551;52.206;4.856;2023-11-18T10:33:25;14.00;;;4.40;;
36547;SDS011;22551;52.206;4.856;2023-11-18T10:38:30;7.03;;;3.85;;
36547;SDS011;22551;52.206;4.856;2023-11-18T10:43:36;10.80;;;3.83;;
36547;SDS011;22551;52.206;4.856;2023-11-18T10:48:42;9.38;;;4.35;;
36547;SDS011;22551;52.206;4.856;2023-11-18T10:53:47;5.43;;;3.60;;
36547;SDS011;22551;52.206;4.856;2023-11-18T10:58:58;8.63;;;3.72;;
36547;SDS011;22551;52.206;4.856;2023-11-18T11:04:08;7.80;;;3.22;;
36547;SDS011;22551;52.206;4.856;2023-11-18T11:09:10;5.68;;;3.40;;
36547;SDS011;22551;52.206;4.856;2023-11-18T11:14:17;9.77;;;3.33;;
36547;SDS011;22551;52.206;4.856;2023-11-18T11:19:26;6.38;;;3.03;;
36547;SDS011;22551;52.206;4.856;2023-11-18T11:24:48;10.23;;;2.97;;
36547;SDS011;22551;52.206;4.856;2023-11-18T11:30:10;9.70;;;3.85;;
36547;SDS011;22551;52.206;4.856;2023-11-18T11:35:31;7.18;;;3.10;;
36547;SDS011;22551;52.206;4.856;2023-11-18T11:40:38;5.85;;;2.55;;
36547;SDS011;22551;52.206;4.856;2023-11-18T11:45:43;9.95;;;2.88;;
36547;SDS011;22551;52.206;4.856;2023-11-18T11:50:57;9.95;;;3.47;;
36547;SDS011;22551;52.206;4.856;2023-11-18T11:56:15;8.98;;;3.05;;
36547;SDS011;22551;52.206;4.856;2023-11-18T12:01:21;8.10;;;3.35;;
36547;SDS011;22551;52.206;4.856;2023-11-18T12:06:33;6.85;;;2.80;;
36547;SDS011;22551;52.206;4.856;2023-11-18T12:11:44;12.07;;;3.47;;
36547;SDS011;22551;52.206;4.856;2023-11-18T12:16:58;6.43;;;3.00;;
36547;SDS011;22551;52.206;4.856;2023-11-18T12:22:15;5.38;;;3.30;;
36547;SDS011;22551;52.206;4.856;2023-11-18T12:27:42;5.03;;;2.50;;
36547;SDS011;22551;52.206;4.856;2023-11-18T12:32:57;6.18;;;3.08;;
36547;SDS011;22551;52.206;4.856;2023-11-18T12:43:49;5.15;;;2.50;;
36547;SDS011;22551;52.206;4.856;2023-11-18T12:49:06;7.50;;;2.28;;
36547;SDS011;22551;52.206;4.856;2023-11-18T12:54:17;4.93;;;2.20;;
36547;SDS011;22551;52.206;4.856;2023-11-18T12:59:20;4.37;;;2.07;;
36547;SDS011;22551;52.206;4.856;2023-11-18T13:04:23;5.82;;;2.30;;
36547;SDS011;22551;52.206;4.856;2023-11-18T13:09:28;4.28;;;1.92;;
36547;SDS011;22551;52.206;4.856;2023-11-18T13:14:37;7.25;;;2.42;;
36547;SDS011;22551;52.206;4.856;2023-11-18T13:19:40;3.33;;;1.73;;
36547;SDS011;22551;52.206;4.856;2023-11-18T13:24:48;2.95;;;1.80;;
36547;SDS011;22551;52.206;4.856;2023-11-18T13:29:51;3.47;;;1.75;;
36547;SDS011;22551;52.206;4.856;2023-11-18T13:34:53;2.72;;;1.60;;
36547;SDS011;22551;52.206;4.856;2023-11-18T13:39:57;1.38;;;0.95;;
36547;SDS011;22551;52.206;4.856;2023-11-18T13:45:11;3.10;;;1.77;;
36547;SDS011;22551;52.206;4.856;2023-11-18T13:50:19;3.05;;;1.23;;
36547;SDS011;22551;52.206;4.856;2023-11-18T13:55:24;3.85;;;1.45;;
36547;SDS011;22551;52.206;4.856;2023-11-18T14:00:27;2.97;;;0.97;;
36547;SDS011;22551;52.206;4.856;2023-11-18T14:05:32;1.38;;;1.25;;
36547;SDS011;22551;52.206;4.856;2023-11-18T14:10:37;3.42;;;1.33;;
36547;SDS011;22551;52.206;4.856;2023-11-18T14:15:40;2.92;;;1.27;;
36547;SDS011;22551;52.206;4.856;2023-11-18T14:20:45;2.42;;;1.17;;
36547;SDS011;22551;52.206;4.856;2023-11-18T14:25:49;1.52;;;1.30;;
36547;SDS011;22551;52.206;4.856;2023-11-18T14:30:51;1.92;;;0.98;;
36547;SDS011;22551;52.206;4.856;2023-11-18T14:35:53;1.15;;;0.98;;
36547;SDS011;22551;52.206;4.856;2023-11-18T14:40:57;2.00;;;0.95;;
36547;SDS011;22551;52.206;4.856;2023-11-18T14:46:00;3.35;;;1.35;;
36547;SDS011;22551;52.206;4.856;2023-11-18T14:51:04;1.20;;;1.10;;
36547;SDS011;22551;52.206;4.856;2023-11-18T14:56:09;1.33;;;0.90;;
36547;SDS011;22551;52.206;4.856;2023-11-18T15:01:11;1.02;;;0.90;;
36547;SDS011;22551;52.206;4.856;2023-11-18T15:06:13;1.17;;;0.80;;
36547;SDS011;22551;52.206;4.856;2023-11-18T15:11:21;1.35;;;1.00;;
36547;SDS011;22551;52.206;4.856;2023-11-18T15:16:24;1.20;;;0.98;;
36547;SDS011;22551;52.206;4.856;2023-11-18T15:21:26;0.88;;;0.80;;
36547;SDS011;22551;52.206;4.856;2023-11-18T15:26:31;1.40;;;1.10;;
36547;SDS011;22551;52.206;4.856;2023-11-18T15:31:34;1.10;;;0.80;;
36547;SDS011;22551;52.206;4.856;2023-11-18T15:36:39;1.25;;;1.00;;
36547;SDS011;22551;52.206;4.856;2023-11-18T15:41:47;1.80;;;1.48;;
36547;SDS011;22551;52.206;4.856;2023-11-18T15:46:49;1.33;;;1.05;;
36547;SDS011;22551;52.206;4.856;2023-11-18T15:51:53;1.70;;;0.82;;
36547;SDS011;22551;52.206;4.856;2023-11-18T15:56:57;2.28;;;1.27;;
36547;SDS011;22551;52.206;4.856;2023-11-18T16:02:00;3.22;;;1.27;;
36547;SDS011;22551;52.206;4.856;2023-11-18T16:07:04;1.80;;;1.58;;
36547;SDS011;22551;52.206;4.856;2023-11-18T16:12:08;2.35;;;1.70;;
36547;SDS011;22551;52.206;4.856;2023-11-18T16:17:14;1.52;;;1.40;;
36547;SDS011;22551;52.206;4.856;2023-11-18T16:22:18;3.15;;;1.70;;
36547;SDS011;22551;52.206;4.856;2023-11-18T16:27:21;2.42;;;1.90;;
36547;SDS011;22551;52.206;4.856;2023-11-18T16:32:33;2.78;;;2.00;;
36547;SDS011;22551;52.206;4.856;2023-11-18T16:37:47;9.43;;;3.72;;
36547;SDS011;22551;52.206;4.856;2023-11-18T16:42:54;3.25;;;2.00;;
36547;SDS011;22551;52.206;4.856;2023-11-18T16:47:58;3.88;;;2.72;;
36547;SDS011;22551;52.206;4.856;2023-11-18T16:53:01;2.63;;;2.17;;
36547;SDS011;22551;52.206;4.856;2023-11-18T16:58:06;3.75;;;2.88;;
36547;SDS011;22551;52.206;4.856;2023-11-18T17:03:08;5.25;;;3.45;;
36547;SDS011;22551;52.206;4.856;2023-11-18T17:08:12;6.60;;;3.58;;
36547;SDS011;22551;52.206;4.856;2023-11-18T17:13:15;5.93;;;4.18;;
36547;SDS011;22551;52.206;4.856;2023-11-18T17:18:18;6.65;;;4.47;;
36547;SDS011;22551;52.206;4.856;2023-11-18T17:23:20;8.40;;;5.90;;
36547;SDS011;22551;52.206;4.856;2023-11-18T17:28:26;10.70;;;6.93;;
36547;SDS011;22551;52.206;4.856;2023-11-18T17:33:28;11.45;;;7.15;;
36547;SDS011;22551;52.206;4.856;2023-11-18T17:38:31;11.82;;;7.50;;
36547;SDS011;22551;52.206;4.856;2023-11-18T17:43:37;13.65;;;7.93;;
36547;SDS011;22551;52.206;4.856;2023-11-18T17:48:39;15.50;;;8.35;;
36547;SDS011;22551;52.206;4.856;2023-11-18T17:53:41;21.02;;;9.95;;
36547;SDS011;22551;52.206;4.856;2023-11-18T17:58:48;16.23;;;9.50;;
36547;SDS011;22551;52.206;4.856;2023-11-18T18:03:51;19.85;;;10.40;;
36547;SDS011;22551;52.206;4.856;2023-11-18T18:08:53;19.25;;;11.05;;
36547;SDS011;22551;52.206;4.856;2023-11-18T18:13:56;19.63;;;11.38;;
36547;SDS011;22551;52.206;4.856;2023-11-18T18:18:58;20.20;;;9.88;;
36547;SDS011;22551;52.206;4.856;2023-11-18T18:24:01;19.02;;;9.82;;
36547;SDS011;22551;52.206;4.856;2023-11-18T18:29:05;15.93;;;9.10;;
36547;SDS011;22551;52.206;4.856;2023-11-18T18:34:07;18.83;;;9.57;;
36547;SDS011;22551;52.206;4.856;2023-11-18T18:39:10;15.45;;;8.52;;
36547;SDS011;22551;52.206;4.856;2023-11-18T18:44:15;15.85;;;8.93;;
36547;SDS011;22551;52.206;4.856;2023-11-18T18:49:17;15.83;;;8.67;;
36547;SDS011;22551;52.206;4.856;2023-11-18T18:54:19;12.77;;;8.05;;
36547;SDS011;22551;52.206;4.856;2023-11-18T18:59:23;16.85;;;8.95;;
36547;SDS011;22551;52.206;4.856;2023-11-18T19:04:25;19.02;;;10.60;;
36547;SDS011;22551;52.206;4.856;2023-11-18T20:29:56;15.95;;;6.20;;
36547;SDS011;22551;52.206;4.856;2023-11-18T20:34:58;20.02;;;4.63;;
36547;SDS011;22551;52.206;4.856;2023-11-18T20:40:00;16.45;;;5.18;;
36547;SDS011;22551;52.206;4.856;2023-11-18T20:45:06;15.98;;;4.93;;
36547;SDS011;22551;52.206;4.856;2023-11-18T20:50:13;16.83;;;4.75;;
36547;SDS011;22551;52.206;4.856;2023-11-18T20:55:16;14.65;;;3.30;;
36547;SDS011;22551;52.206;4.856;2023-11-18T21:00:21;20.67;;;5.05;;
36547;SDS011;22551;52.206;4.856;2023-11-18T21:05:23;17.60;;;3.45;;
36547;SDS011;22551;52.206;4.856;2023-11-18T21:10:25;11.50;;;3.55;;
36547;SDS011;22551;52.206;4.856;2023-11-18T21:15:28;23.17;;;3.38;;
36547;SDS011;22551;52.206;4.856;2023-11-18T21:20:31;20.08;;;4.10;;
36547;SDS011;22551;52.206;4.856;2023-11-18T21:25:34;21.67;;;3.50;;
36547;SDS011;22551;52.206;4.856;2023-11-18T21:30:38;21.98;;;4.47;;
36547;SDS011;22551;52.206;4.856;2023-11-18T21:35:41;17.30;;;3.35;;
36547;SDS011;22551;52.206;4.856;2023-11-18T21:40:44;23.52;;;3.65;;
36547;SDS011;22551;52.206;4.856;2023-11-18T21:45:48;24.23;;;3.75;;
36547;SDS011;22551;52.206;4.856;2023-11-18T21:50:51;27.90;;;3.60;;
36547;SDS011;22551;52.206;4.856;2023-11-18T21:55:54;16.90;;;3.95;;
36547;SDS011;22551;52.206;4.856;2023-11-18T22:00:57;11.10;;;3.20;;
36547;SDS011;22551;52.206;4.856;2023-11-18T22:05:59;18.45;;;3.42;;
36547;SDS011;22551;52.206;4.856;2023-11-18T22:11:02;28.80;;;4.28;;
36547;SDS011;22551;52.206;4.856;2023-11-18T22:16:06;28.63;;;3.97;;
36547;SDS011;22551;52.206;4.856;2023-11-18T22:26:12;27.45;;;3.42;;
36547;SDS011;22551;52.206;4.856;2023-11-18T22:31:15;20.05;;;4.38;;
36547;SDS011;22551;52.206;4.856;2023-11-18T22:36:20;22.38;;;4.00;;
36547;SDS011;22551;52.206;4.856;2023-11-18T22:41:22;23.55;;;3.35;;
36547;SDS011;22551;52.206;4.856;2023-11-18T22:46:26;24.08;;;3.35;;
36547;SDS011;22551;52.206;4.856;2023-11-18T22:51:28;16.95;;;3.95;;
36547;SDS011;22551;52.206;4.856;2023-11-18T22:56:31;25.20;;;3.78;;
36547;SDS011;22551;52.206;4.856;2023-11-18T23:01:34;19.58;;;3.13;;
36547;SDS011;22551;52.206;4.856;2023-11-18T23:06:39;29.00;;;3.83;;
36547;SDS011;22551;52.206;4.856;2023-11-18T23:11:42;23.33;;;4.35;;
36547;SDS011;22551;52.206;4.856;2023-11-18T23:16:47;18.45;;;3.28;;
36547;SDS011;22551;52.206;4.856;2023-11-18T23:21:52;23.80;;;4.55;;
36547;SDS011;22551;52.206;4.856;2023-11-18T23:26:54;23.08;;;3.50;;
36547;SDS011;22551;52.206;4.856;2023-11-18T23:31:58;16.02;;;3.70;;
36547;SDS011;22551;52.206;4.856;2023-11-18T23:37:00;32.58;;;4.15;;
36547;SDS011;22551;52.206;4.856;2023-11-18T23:42:04;25.30;;;5.53;;
36547;SDS011;22551;52.206;4.856;2023-11-18T23:47:08;25.13;;;3.10;;
36547;SDS011;22551;52.206;4.856;2023-11-18T23:52:10;20.90;;;2.83;;
36547;SDS011;22551;52.206;4.856;2023-11-18T23:57:12;33.08;;;3.92;;
